首页
METAR-TAF:

METAR-TAF

机场 :

北京首都国际机场

北京, 中华人民共和国

纬度: 39-56N, 经度: 116-17E, 海拔: 55米

当前天气观测

该预报发布于35分钟前的03:00 UTC
风速2节,风向多变
温度 22°C
湿度 88%
气压 1008 hPa
能見度: 6000
散云层高于700英尺
阴天层高于4000英尺
小雨

METAR: ZBAA 200300Z VRB01MPS 6000 -RA SCT007 OVC040 22/20 Q1008 NOSIG

时间: 11:35 (03:35 UTC)

预报

该预报发布于6小时和15分钟前的21:20 UTC
预报有效从20日的 00点(UTC)到 20日的 24点(UTC)
风速8节,风向
能见度10公里或以上
1500米以下无云,无积雨云

TAF: ZBAA 192120Z 2000/2024 18004MPS CAVOK TX29/2007Z TN17/2021Z

超过4000个机场的气象观测和天气预报(METAR&TAF报告)。

可查询的气象台以黄色和红色小点在地图上表示。

将鼠标移到小点上方,可查看气象台名称。

然后点击查看天气观测和预报。

如需切换地图:点击带黑十字的绿色按钮放大地图;点击带横线的绿色按钮缩小地图;或者点击绿色箭头查看邻近地区的地图。


METAR-TAF: